createdAt,value
2022-12-31T00:00:32.715Z,101363.53
2022-12-31T00:03:04.557Z,101368.59
2022-12-31T00:05:37.034Z,101373.66
2022-12-31T00:08:08.140Z,101374.34
2022-12-31T00:10:44.028Z,101379.44
2022-12-31T00:13:15.263Z,101383.50
2022-12-31T00:15:46.462Z,101386.41
2022-12-31T00:18:19.828Z,101388.25
2022-12-31T00:20:53.381Z,101385.56
2022-12-31T00:23:25.090Z,101391.50
2022-12-31T00:25:55.625Z,101390.31
2022-12-31T00:28:25.991Z,101396.06
2022-12-31T00:30:57.088Z,101395.59
2022-12-31T00:33:28.047Z,101397.16
2022-12-31T00:36:10.694Z,101402.13
2022-12-31T00:38:43.089Z,101406.56
2022-12-31T00:41:14.917Z,101411.81
2022-12-31T00:43:45.836Z,101399.75
2022-12-31T00:46:22.945Z,101413.56
2022-12-31T00:48:53.567Z,101414.94
2022-12-31T00:51:28.437Z,101413.75
2022-12-31T00:53:59.521Z,101405.53
2022-12-31T00:56:31.523Z,101404.38
2022-12-31T00:59:02.467Z,101400.34
2022-12-31T01:01:35.516Z,101404.59
2022-12-31T01:04:11.704Z,101404.78
2022-12-31T01:06:46.310Z,101414.38
2022-12-31T01:09:17.933Z,101410.69
2022-12-31T01:11:48.467Z,101416.59
2022-12-31T01:14:23.926Z,101413.78
2022-12-31T01:16:55.525Z,101411.75
2022-12-31T01:19:29.241Z,101414.13
2022-12-31T01:22:00.120Z,101401.03
2022-12-31T01:24:30.698Z,101405.75
2022-12-31T01:27:02.136Z,101410.34
2022-12-31T01:29:32.476Z,101399.38
2022-12-31T01:32:03.253Z,101407.31
2022-12-31T01:34:33.735Z,101406.13
2022-12-31T01:37:04.738Z,101404.66
2022-12-31T01:39:37.612Z,101402.13
2022-12-31T01:42:10.462Z,101404.34
2022-12-31T01:44:40.781Z,101396.78
2022-12-31T01:47:17.134Z,101393.06
2022-12-31T01:49:55.834Z,101387.69
2022-12-31T01:52:32.921Z,101395.94
2022-12-31T01:55:10.407Z,101384.16
2022-12-31T01:57:43.360Z,101386.34
2022-12-31T02:00:15.839Z,101384.03
2022-12-31T02:02:50.204Z,101386.41
2022-12-31T02:05:48.624Z,101393.53
2022-12-31T02:08:19.873Z,101374.69
2022-12-31T02:10:51.203Z,101382.78
2022-12-31T02:13:22.597Z,101386.84
2022-12-31T02:16:06.845Z,101381.47
2022-12-31T02:18:48.656Z,101378.09
2022-12-31T02:21:30.906Z,101371.50
2022-12-31T02:24:02.791Z,101370.69
2022-12-31T02:26:41.895Z,101363.09
2022-12-31T02:29:50.041Z,101356.88
2022-12-31T02:32:32.228Z,101356.56
2022-12-31T02:35:38.657Z,101358.72
2022-12-31T02:38:21.695Z,101356.56
2022-12-31T02:40:55.272Z,101358.38
2022-12-31T02:43:27.274Z,101354.19
2022-12-31T02:46:22.508Z,101372.91
2022-12-31T02:49:04.586Z,101350.00
2022-12-31T02:51:46.465Z,101352.34
2022-12-31T02:54:33.562Z,101348.44
2022-12-31T02:57:12.201Z,101341.91
2022-12-31T03:00:31.180Z,101335.28
2022-12-31T03:03:03.401Z,101335.63
2022-12-31T03:05:37.923Z,101326.19
2022-12-31T03:08:08.605Z,101325.84
2022-12-31T03:10:39.203Z,101316.38
2022-12-31T03:13:09.791Z,101330.19
2022-12-31T03:15:40.694Z,101318.72
2022-12-31T03:18:17.166Z,101313.31
2022-12-31T03:21:08.881Z,101310.16
2022-12-31T03:23:42.264Z,101311.84
2022-12-31T03:26:15.784Z,101310.28
2022-12-31T03:28:48.635Z,101304.19
2022-12-31T03:31:19.375Z,101293.03
2022-12-31T03:33:50.551Z,101292.69
2022-12-31T03:36:21.113Z,101293.00
2022-12-31T03:38:52.956Z,101283.53
2022-12-31T03:41:24.755Z,101274.44
2022-12-31T03:43:55.477Z,101270.53
2022-12-31T03:46:26.456Z,101275.09
2022-12-31T03:48:56.817Z,101268.13
2022-12-31T03:51:27.171Z,101256.31
2022-12-31T03:53:58.399Z,101257.84
2022-12-31T03:56:29.454Z,101245.34
2022-12-31T03:59:00.605Z,101245.47
2022-12-31T04:01:33.172Z,101242.91
2022-12-31T04:04:03.938Z,101240.91
2022-12-31T04:06:34.456Z,101243.91
2022-12-31T04:09:07.838Z,101230.72
2022-12-31T04:11:38.574Z,101225.59
2022-12-31T04:14:09.904Z,101222.78
2022-12-31T04:16:41.633Z,101205.47
2022-12-31T04:19:14.066Z,101209.88
2022-12-31T04:21:45.270Z,101204.47
2022-12-31T04:24:15.616Z,101198.22
2022-12-31T04:26:46.317Z,101192.47
2022-12-31T04:29:17.324Z,101188.53
2022-12-31T04:31:49.031Z,101175.41
2022-12-31T04:34:19.619Z,101172.06
2022-12-31T04:36:50.324Z,101168.97
2022-12-31T04:39:24.093Z,101162.75
2022-12-31T04:41:54.974Z,101154.66
2022-12-31T04:44:26.610Z,101145.91
2022-12-31T04:47:06.195Z,101140.13
2022-12-31T04:49:36.774Z,101137.22
2022-12-31T04:52:07.471Z,101138.44
2022-12-31T04:54:38.004Z,101132.69
2022-12-31T04:57:08.575Z,101129.97
2022-12-31T04:59:39.169Z,101123.91
2022-12-31T05:02:09.909Z,101119.63
2022-12-31T05:04:40.748Z,101118.53
2022-12-31T05:07:11.335Z,101111.06
2022-12-31T05:09:42.609Z,101106.56
2022-12-31T05:12:13.249Z,101106.41
2022-12-31T05:14:47.673Z,101102.50
2022-12-31T05:17:20.580Z,101092.06
2022-12-31T05:19:51.076Z,101087.66
2022-12-31T05:22:31.010Z,101083.94
2022-12-31T05:25:02.361Z,101071.66
2022-12-31T05:27:33.081Z,101072.03
2022-12-31T05:30:04.586Z,101069.41
2022-12-31T05:32:35.325Z,101063.34
2022-12-31T05:35:10.030Z,101056.66
2022-12-31T05:37:41.018Z,101060.41
2022-12-31T05:40:12.578Z,101053.31
2022-12-31T05:42:42.884Z,101054.72
2022-12-31T05:45:16.833Z,101046.63
2022-12-31T05:47:49.531Z,101041.00
2022-12-31T05:50:20.474Z,101041.22
2022-12-31T05:52:59.345Z,101043.25
2022-12-31T05:55:29.912Z,101047.00
2022-12-31T05:58:01.585Z,101040.94
2022-12-31T06:00:34.745Z,101045.09
2022-12-31T06:03:05.065Z,101039.91
2022-12-31T06:05:36.512Z,101035.91
2022-12-31T06:08:07.040Z,101037.66
2022-12-31T06:10:38.395Z,101031.53
2022-12-31T06:13:11.687Z,101036.00
2022-12-31T06:15:42.407Z,101028.53
2022-12-31T06:18:13.082Z,101029.38
2022-12-31T06:20:43.951Z,101028.91
2022-12-31T06:23:17.497Z,101033.66
2022-12-31T06:25:47.802Z,101029.09
2022-12-31T06:28:20.603Z,101030.59
2022-12-31T06:30:51.154Z,101033.47
2022-12-31T06:33:23.112Z,101026.75
2022-12-31T06:35:58.063Z,101028.91
2022-12-31T06:38:31.100Z,101025.56
2022-12-31T06:41:05.876Z,101033.34
2022-12-31T06:43:46.290Z,101024.22
2022-12-31T06:46:18.372Z,101020.38
2022-12-31T06:48:49.425Z,101021.59
2022-12-31T06:51:21.777Z,101020.84
2022-12-31T06:53:53.282Z,101015.13
2022-12-31T06:56:32.956Z,101017.81
2022-12-31T06:59:06.017Z,101013.78
2022-12-31T07:01:39.197Z,101007.06
2022-12-31T07:04:30.782Z,101010.53
2022-12-31T07:07:14.935Z,101022.00
2022-12-31T07:09:55.020Z,101014.09
2022-12-31T07:12:50.531Z,101017.13
2022-12-31T07:15:42.171Z,101023.88
2022-12-31T07:18:58.166Z,101018.94
2022-12-31T07:21:41.249Z,101021.47
2022-12-31T07:24:13.116Z,101023.50
2022-12-31T07:26:56.934Z,101016.06
2022-12-31T07:29:41.138Z,101024.34
2022-12-31T07:32:46.327Z,101023.78
2022-12-31T07:35:31.215Z,101025.00
2022-12-31T07:38:29.422Z,101020.97
2022-12-31T07:41:09.782Z,101024.59
2022-12-31T07:44:21.931Z,101029.63
2022-12-31T07:47:00.727Z,101024.94
2022-12-31T07:49:32.796Z,101028.44
2022-12-31T07:52:03.554Z,101027.94
2022-12-31T07:54:34.539Z,101025.78
2022-12-31T07:57:05.269Z,101033.72
2022-12-31T07:59:39.297Z,101031.31
2022-12-31T08:02:15.935Z,101032.16
2022-12-31T08:05:01.149Z,101041.75
2022-12-31T08:07:34.631Z,101033.81
2022-12-31T08:10:38.187Z,101037.19
2022-12-31T08:13:11.607Z,101036.03
2022-12-31T08:15:42.411Z,101036.03
2022-12-31T08:18:13.596Z,101036.72
2022-12-31T08:21:14.575Z,101046.63
2022-12-31T08:24:10.791Z,101046.19
2022-12-31T08:27:05.362Z,101046.19
2022-12-31T08:29:42.659Z,101050.06
2022-12-31T08:32:23.558Z,101051.28
2022-12-31T08:35:50.374Z,101056.31
2022-12-31T08:38:44.010Z,101051.47
2022-12-31T08:41:40.680Z,101049.91
2022-12-31T08:44:28.699Z,101052.13
2022-12-31T08:47:09.167Z,101058.44
2022-12-31T08:49:39.995Z,101062.16
2022-12-31T08:52:17.823Z,101066.19
2022-12-31T08:54:50.488Z,101073.25
2022-12-31T08:57:27.527Z,101072.22
2022-12-31T09:00:16.625Z,101073.91
2022-12-31T09:02:48.389Z,101068.88
2022-12-31T09:05:46.086Z,101074.63
2022-12-31T09:08:46.673Z,101073.78
2022-12-31T09:11:23.656Z,101072.75
2022-12-31T09:14:35.083Z,101073.25
2022-12-31T09:17:21.432Z,101073.41
2022-12-31T09:19:55.523Z,101076.31
2022-12-31T09:22:26.565Z,101069.59
2022-12-31T09:24:57.476Z,101070.44
2022-12-31T09:27:42.357Z,101077.69
2022-12-31T09:30:15.045Z,101073.38
2022-12-31T09:33:00.532Z,101080.09
2022-12-31T09:35:45.050Z,101087.84
2022-12-31T09:38:55.567Z,101092.94
2022-12-31T09:41:38.531Z,101096.38
2022-12-31T09:44:43.225Z,101094.31
2022-12-31T09:47:26.453Z,101096.38
2022-12-31T09:50:21.755Z,101100.91
2022-12-31T09:53:10.536Z,101107.16
2022-12-31T09:56:03.195Z,101112.19
2022-12-31T09:58:39.955Z,101113.56
2022-12-31T10:01:40.042Z,101120.28
2022-12-31T10:04:49.426Z,101120.81
2022-12-31T10:07:19.905Z,101131.50
2022-12-31T10:10:02.426Z,101134.56
2022-12-31T10:12:41.207Z,101138.97
2022-12-31T10:15:47.129Z,101145.41
2022-12-31T10:18:20.664Z,101147.06
2022-12-31T10:21:28.046Z,101149.13
2022-12-31T10:24:10.916Z,101144.03
2022-12-31T10:26:53.941Z,101146.41
2022-12-31T10:29:35.754Z,101141.03
2022-12-31T10:32:19.214Z,101146.94
2022-12-31T10:35:11.623Z,101151.13
2022-12-31T10:37:49.776Z,101159.91
2022-12-31T10:40:21.135Z,101152.31
2022-12-31T10:43:07.532Z,101165.63
2022-12-31T10:45:48.276Z,101161.91
2022-12-31T10:48:37.191Z,101166.84
2022-12-31T10:51:16.301Z,101177.44
2022-12-31T10:54:20.925Z,101174.41
2022-12-31T10:57:16.487Z,101183.50
2022-12-31T11:00:10.542Z,101186.53
2022-12-31T11:02:50.006Z,101185.03
2022-12-31T11:05:35.359Z,101181.34
2022-12-31T11:08:43.331Z,101183.84
2022-12-31T11:11:19.782Z,101183.22
2022-12-31T11:14:20.966Z,101184.91
2022-12-31T11:17:13.826Z,101177.81
2022-12-31T11:20:11.674Z,101183.22
2022-12-31T11:22:59.820Z,101182.38
2022-12-31T11:25:38.989Z,101186.09
2022-12-31T11:28:36.007Z,101191.97
2022-12-31T11:31:28.876Z,101192.00
2022-12-31T11:34:21.463Z,101189.81
2022-12-31T11:37:09.890Z,101201.84
2022-12-31T11:39:50.231Z,101203.50
2022-12-31T11:42:51.167Z,101210.91
2022-12-31T11:45:51.018Z,101207.22
2022-12-31T11:48:31.561Z,101204.50
2022-12-31T11:51:27.214Z,101203.81
2022-12-31T11:54:23.048Z,101214.94
2022-12-31T11:57:13.268Z,101222.53
2022-12-31T11:59:49.813Z,101219.16
2022-12-31T12:02:34.251Z,101230.78
2022-12-31T12:05:11.005Z,101231.13
2022-12-31T12:07:42.300Z,101230.47
2022-12-31T12:10:43.080Z,101232.81
2022-12-31T12:13:28.848Z,101239.94
2022-12-31T12:16:02.459Z,101236.38
2022-12-31T12:19:07.037Z,101236.88
2022-12-31T12:21:49.723Z,101237.22
2022-12-31T12:24:24.582Z,101244.47
2022-12-31T12:26:55.580Z,101233.50
2022-12-31T12:29:36.212Z,101239.91
2022-12-31T12:32:08.662Z,101244.97
2022-12-31T12:34:46.071Z,101247.53
2022-12-31T12:37:25.887Z,101246.66
2022-12-31T12:40:33.353Z,101252.91
2022-12-31T12:43:04.810Z,101256.13
2022-12-31T12:45:45.157Z,101244.00
2022-12-31T12:48:41.576Z,101245.31
2022-12-31T12:51:33.521Z,101247.69
2022-12-31T12:54:43.701Z,101250.38
2022-12-31T12:57:41.698Z,101253.25
2022-12-31T13:00:23.328Z,101252.06
2022-12-31T13:03:11.691Z,101250.03
2022-12-31T13:06:05.984Z,101242.13
2022-12-31T13:09:02.460Z,101248.00
2022-12-31T13:12:07.769Z,101247.66
2022-12-31T13:14:59.145Z,101249.69
2022-12-31T13:17:36.995Z,101247.53
2022-12-31T13:20:31.476Z,101247.53
2022-12-31T13:23:45.087Z,101250.03
2022-12-31T13:26:44.754Z,101255.59
2022-12-31T13:29:21.756Z,101256.13
2022-12-31T13:31:53.770Z,101250.56
2022-12-31T13:34:38.469Z,101247.34
2022-12-31T13:37:39.389Z,101236.41
2022-12-31T13:40:33.164Z,101242.47
2022-12-31T13:43:10.199Z,101244.66
2022-12-31T13:45:43.529Z,101244.00
2022-12-31T13:48:24.508Z,101243.66
2022-12-31T13:51:05.903Z,101238.78
2022-12-31T13:53:50.978Z,101237.78
2022-12-31T13:56:26.154Z,101245.00
2022-12-31T13:59:08.604Z,101226.13
2022-12-31T14:01:43.730Z,101226.31
2022-12-31T14:04:25.306Z,101238.94
2022-12-31T14:07:07.405Z,101239.94
2022-12-31T14:09:41.668Z,101236.63
2022-12-31T14:12:35.194Z,101237.78
2022-12-31T14:15:17.449Z,101246.34
2022-12-31T14:18:36.419Z,101244.72
2022-12-31T14:21:12.268Z,101251.47
2022-12-31T14:24:21.491Z,101253.97
2022-12-31T14:27:11.298Z,101248.56
2022-12-31T14:30:05.434Z,101244.03
2022-12-31T14:33:11.938Z,101237.78
2022-12-31T14:36:05.197Z,101236.28
2022-12-31T14:38:41.874Z,101235.75
2022-12-31T14:41:29.734Z,101229.53
2022-12-31T14:44:27.743Z,101243.34
2022-12-31T14:47:24.679Z,101234.59
2022-12-31T14:50:17.265Z,101230.34
2022-12-31T14:52:52.437Z,101231.56
2022-12-31T14:55:29.584Z,101234.59
2022-12-31T14:58:27.044Z,101236.44
2022-12-31T15:00:57.578Z,101243.84
2022-12-31T15:03:37.823Z,101247.41
2022-12-31T15:06:25.334Z,101248.06
2022-12-31T15:09:32.552Z,101247.72
2022-12-31T15:12:39.865Z,101247.06
2022-12-31T15:16:00.347Z,101243.16
2022-12-31T15:18:53.767Z,101244.72
2022-12-31T15:21:57.026Z,101243.69
2022-12-31T15:24:31.547Z,101235.28
2022-12-31T15:27:08.165Z,101243.38
2022-12-31T15:29:44.925Z,101230.72
2022-12-31T15:32:21.712Z,101225.66
2022-12-31T15:35:03.269Z,101235.09
2022-12-31T15:37:36.935Z,101226.19
2022-12-31T15:40:31.141Z,101223.81
2022-12-31T15:43:14.479Z,101230.56
2022-12-31T15:45:49.098Z,101220.94
2022-12-31T15:48:28.325Z,101212.19
2022-12-31T15:51:01.880Z,101212.38
2022-12-31T15:53:54.911Z,101211.03
2022-12-31T15:56:46.202Z,101198.91
2022-12-31T15:59:19.142Z,101196.38
2022-12-31T16:01:50.784Z,101199.72
2022-12-31T16:04:30.892Z,101198.91
2022-12-31T16:07:03.146Z,101192.19
2022-12-31T16:09:35.872Z,101190.50
2022-12-31T16:12:12.712Z,101186.78
2022-12-31T16:14:50.416Z,101190.50
2022-12-31T16:17:42.835Z,101182.06
2022-12-31T16:20:27.718Z,101179.38
2022-12-31T16:23:00.068Z,101184.25
2022-12-31T16:25:33.878Z,101183.44
2022-12-31T16:28:08.121Z,101173.47
2022-12-31T16:30:41.476Z,101168.09
2022-12-31T16:33:15.810Z,101165.56
2022-12-31T16:35:56.632Z,101161.88
2022-12-31T16:38:35.664Z,101156.81
2022-12-31T16:41:18.727Z,101155.97
2022-12-31T16:43:51.168Z,101159.84
2022-12-31T16:46:28.856Z,101146.72
2022-12-31T16:49:02.685Z,101149.75
2022-12-31T16:51:35.633Z,101162.56
2022-12-31T16:54:06.523Z,101176.69
2022-12-31T16:56:40.221Z,101179.53
2022-12-31T16:59:25.839Z,101161.22
2022-12-31T17:02:05.143Z,101169.44
2022-12-31T17:04:36.935Z,101160.88
2022-12-31T17:07:28.793Z,101155.16
2022-12-31T17:10:11.291Z,101163.25
2022-12-31T17:13:25.331Z,101166.59
2022-12-31T17:15:43.824Z,101163.25
2022-12-31T17:18:26.253Z,101144.72
2022-12-31T17:20:57.577Z,101150.09
2022-12-31T17:23:30.501Z,101149.09
2022-12-31T17:26:09.100Z,101135.97
2022-12-31T17:28:47.345Z,101145.06
2022-12-31T17:31:28.621Z,101137.31
2022-12-31T17:34:16.403Z,101135.63
2022-12-31T17:36:59.670Z,101144.72
2022-12-31T17:39:46.041Z,101136.63
2022-12-31T17:42:25.799Z,101137.63
2022-12-31T17:45:02.940Z,101134.28
2022-12-31T17:47:39.525Z,101131.25
2022-12-31T17:50:28.535Z,101131.72
2022-12-31T17:53:10.181Z,101140.00
2022-12-31T17:55:43.103Z,101130.91
2022-12-31T17:58:29.885Z,101127.56
2022-12-31T18:01:01.387Z,101128.38
2022-12-31T18:03:35.635Z,101124.53
2022-12-31T18:06:09.175Z,101120.16
2022-12-31T18:08:43.637Z,101129.91
2022-12-31T18:11:19.898Z,101138.16
2022-12-31T18:13:50.972Z,101127.75
2022-12-31T18:16:21.268Z,101117.78
2022-12-31T18:18:55.755Z,101116.13
2022-12-31T18:21:35.942Z,101104.84
2022-12-31T18:24:07.476Z,101093.22
2022-12-31T18:26:40.788Z,101077.59
2022-12-31T18:29:17.367Z,101079.44
2022-12-31T18:31:48.832Z,101083.13
2022-12-31T18:34:19.949Z,101076.41
2022-12-31T18:36:50.776Z,101083.16
2022-12-31T18:39:23.828Z,101069.03
2022-12-31T18:41:54.280Z,101071.72
2022-12-31T18:44:24.871Z,101065.31
2022-12-31T18:46:55.958Z,101065.66
2022-12-31T18:49:26.722Z,101054.91
2022-12-31T18:52:00.105Z,101063.66
2022-12-31T18:54:31.272Z,101060.28
2022-12-31T18:57:01.818Z,101050.38
2022-12-31T18:59:32.329Z,101047.00
2022-12-31T19:02:05.784Z,101051.88
2022-12-31T19:04:36.492Z,101050.03
2022-12-31T19:07:07.040Z,101054.22
2022-12-31T19:09:46.372Z,101058.94
2022-12-31T19:12:17.543Z,101059.94
2022-12-31T19:14:51.186Z,101055.91
2022-12-31T19:17:22.550Z,101057.59
2022-12-31T19:19:52.887Z,101065.00
2022-12-31T19:22:23.451Z,101070.56
2022-12-31T19:24:53.733Z,101066.69
2022-12-31T19:27:24.073Z,101066.19
2022-12-31T19:29:54.970Z,101068.34
2022-12-31T19:32:25.578Z,101075.59
2022-12-31T19:34:56.014Z,101064.66
2022-12-31T19:37:26.786Z,101063.97
2022-12-31T19:39:57.275Z,101069.38
2022-12-31T19:42:28.069Z,101069.66
2022-12-31T19:44:58.941Z,101080.75
2022-12-31T19:47:29.858Z,101079.94
2022-12-31T19:50:01.029Z,101078.75
2022-12-31T19:52:31.319Z,101080.63
2022-12-31T19:55:01.766Z,101088.69
2022-12-31T19:57:32.224Z,101091.03
2022-12-31T20:00:03.090Z,101082.78
2022-12-31T20:02:42.709Z,101082.44
2022-12-31T20:05:14.479Z,101084.47
2022-12-31T20:07:45.397Z,101080.75
2022-12-31T20:10:16.737Z,101082.78
2022-12-31T20:12:47.304Z,101090.00
2022-12-31T20:15:17.695Z,101088.19
2022-12-31T20:17:48.183Z,101087.19
2022-12-31T20:20:19.033Z,101094.56
2022-12-31T20:22:49.793Z,101095.91
2022-12-31T20:25:35.402Z,101098.91
2022-12-31T20:28:05.719Z,101092.22
2022-12-31T20:30:39.816Z,101101.28
2022-12-31T20:33:15.783Z,101097.94
2022-12-31T20:35:49.789Z,101101.63
2022-12-31T20:38:20.703Z,101115.56
2022-12-31T20:40:51.157Z,101121.47
2022-12-31T20:43:22.539Z,101113.41
2022-12-31T20:45:52.893Z,101117.78
2022-12-31T20:48:23.452Z,101120.94
2022-12-31T20:50:58.320Z,101126.00
2022-12-31T20:53:28.775Z,101121.47
2022-12-31T20:55:59.146Z,101117.75
2022-12-31T20:58:29.823Z,101120.13
2022-12-31T21:01:00.345Z,101120.13
2022-12-31T21:04:03.789Z,101126.66
2022-12-31T21:06:21.910Z,101128.16
2022-12-31T21:08:52.322Z,101134.91
2022-12-31T21:11:41.657Z,101134.22
2022-12-31T21:14:12.151Z,101133.22
2022-12-31T21:16:42.833Z,101135.22
2022-12-31T21:19:13.139Z,101129.84
2022-12-31T21:21:46.064Z,101135.22
2022-12-31T21:24:23.512Z,101134.56
2022-12-31T21:26:57.983Z,101143.28
2022-12-31T21:29:34.068Z,101147.13
2022-12-31T21:32:07.062Z,101150.50
2022-12-31T21:34:38.204Z,101155.06
2022-12-31T21:37:08.754Z,101153.53
2022-12-31T21:39:51.292Z,101148.16
2022-12-31T21:42:21.949Z,101153.38
2022-12-31T21:44:52.393Z,101149.69
2022-12-31T21:47:47.132Z,101160.59
2022-12-31T21:50:18.545Z,101163.28
2022-12-31T21:52:52.877Z,101169.84
2022-12-31T21:55:41.768Z,101167.97
2022-12-31T21:58:28.403Z,101168.16
2022-12-31T22:01:18.659Z,101184.28
2022-12-31T22:03:49.295Z,101180.59
2022-12-31T22:06:22.806Z,101177.22
2022-12-31T22:08:56.333Z,101183.59
2022-12-31T22:11:28.825Z,101188.63
2022-12-31T22:13:59.360Z,101183.25
2022-12-31T22:16:30.187Z,101188.78
2022-12-31T22:19:00.881Z,101195.00
2022-12-31T22:21:31.322Z,101206.09
2022-12-31T22:24:11.155Z,101203.06
2022-12-31T22:26:46.464Z,101205.75
2022-12-31T22:29:17.131Z,101214.16
2022-12-31T22:31:48.967Z,101215.84
2022-12-31T22:34:25.228Z,101217.53
2022-12-31T22:36:55.506Z,101228.28
2022-12-31T22:39:43.613Z,101232.28
2022-12-31T22:42:18.529Z,101235.97
2022-12-31T22:44:49.659Z,101235.97
2022-12-31T22:47:19.960Z,101233.63
2022-12-31T22:49:50.754Z,101233.63
2022-12-31T22:52:21.495Z,101228.91
2022-12-31T22:54:52.069Z,101235.44
2022-12-31T22:57:22.399Z,101239.69
2022-12-31T22:59:55.888Z,101236.13
2022-12-31T23:02:26.971Z,101235.97
2022-12-31T23:05:16.099Z,101240.69
2022-12-31T23:07:50.003Z,101237.13
2022-12-31T23:10:39.273Z,101233.94
2022-12-31T23:13:27.826Z,101240.00
2022-12-31T23:16:17.222Z,101251.44
2022-12-31T23:19:05.813Z,101255.13
2022-12-31T23:21:56.057Z,101251.44
2022-12-31T23:24:29.948Z,101265.19
2022-12-31T23:27:00.913Z,101261.81
2022-12-31T23:29:31.186Z,101263.81
2022-12-31T23:32:01.803Z,101260.50
2022-12-31T23:34:32.232Z,101265.19
2022-12-31T23:37:06.411Z,101259.50
2022-12-31T23:39:37.086Z,101270.56
2022-12-31T23:42:07.718Z,101274.94
2022-12-31T23:44:38.133Z,101283.31
2022-12-31T23:47:14.582Z,101288.38
2022-12-31T23:49:45.148Z,101297.47
2022-12-31T23:52:15.721Z,101295.09
2022-12-31T23:54:46.339Z,101299.13
2022-12-31T23:57:17.609Z,101305.03
2022-12-31T23:59:59.918Z,101302.19
